Terminal Aerodrome Forecast
Issued by NWS

Home | Current Version | Previous Version | Text Only | Print | Product List | Glossary On
Versions: 1 2 3 4 5 6 7 8 9 10 11 12 13 14 15 16 17 18 19 20 21 22 23 24 25 26 27 28 29 30 31 32 33 34
000
FTAK31 PANC 050534
TAFAHO
TAF
PAHO 050534Z 0506/0606 20006KT P6SM VCSH OVC010
     FM051200 VRB04KT P6SM VCFG BKN004 OVC010
     FM051800 VRB03KT P6SM SCT004 OVC018
     FM052100 22007KT P6SM BKN035=

USA.gov is the U.S. government's official web portal to all federal, state and local government web resources and services.